createdAt,value
2024-05-09T00:32:06.640Z,4.90
2024-05-09T00:35:32.048Z,3.70
2024-05-09T00:38:57.475Z,3.57
2024-05-09T00:42:22.726Z,4.40
2024-05-09T00:45:48.660Z,4.17
2024-05-09T00:49:17.015Z,4.57
2024-05-09T00:52:43.459Z,3.50
2024-05-09T00:56:12.476Z,5.40
2024-05-09T00:59:38.428Z,4.20
2024-05-09T01:03:04.054Z,4.93
2024-05-09T01:06:32.076Z,3.83
2024-05-09T01:09:57.327Z,3.83
2024-05-09T01:13:22.560Z,4.27
2024-05-09T01:16:48.382Z,3.77
2024-05-09T01:20:20.098Z,3.97
2024-05-09T01:23:55.112Z,3.90
2024-05-09T01:27:20.823Z,3.90
2024-05-09T01:30:46.378Z,3.47
2024-05-09T01:34:11.987Z,5.10
2024-05-09T01:37:37.388Z,3.97
2024-05-09T01:41:05.265Z,4.13
2024-05-09T01:44:30.639Z,4.07
2024-05-09T01:47:56.135Z,5.17
2024-05-09T01:51:21.583Z,5.60
2024-05-09T01:54:46.832Z,5.10
2024-05-09T01:58:15.162Z,5.13
2024-05-09T02:01:56.353Z,4.50
2024-05-09T02:05:23.238Z,4.23
2024-05-09T02:08:49.121Z,3.80
2024-05-09T02:12:14.564Z,4.90
2024-05-09T02:15:42.810Z,4.30
2024-05-09T02:19:08.241Z,5.23
2024-05-09T02:22:33.719Z,4.20
2024-05-09T02:25:59.217Z,4.33
2024-05-09T02:29:24.499Z,3.73
2024-05-09T02:32:52.446Z,4.53
2024-05-09T02:36:17.758Z,4.83
2024-05-09T02:39:40.337Z,4.33
2024-05-09T02:43:06.034Z,4.10
2024-05-09T02:46:31.540Z,4.80
2024-05-09T02:49:56.830Z,4.57
2024-05-09T02:53:22.427Z,4.77
2024-05-09T02:56:47.687Z,5.93
2024-05-09T03:00:18.494Z,4.77
2024-05-09T03:03:50.424Z,4.30
2024-05-09T03:07:20.071Z,4.37
2024-05-09T03:10:45.593Z,3.83
2024-05-09T03:14:11.044Z,5.13
2024-05-09T03:17:36.649Z,4.57
2024-05-09T03:20:59.582Z,4.37
2024-05-09T03:24:27.464Z,4.37
2024-05-09T03:27:52.754Z,5.00
2024-05-09T03:31:18.429Z,4.33
2024-05-09T03:34:44.180Z,5.10
2024-05-09T03:38:09.705Z,5.13
2024-05-09T03:41:37.761Z,4.87
2024-05-09T03:45:03.147Z,4.40
2024-05-09T03:48:28.717Z,3.50
2024-05-09T03:51:54.045Z,5.10
2024-05-09T03:55:16.676Z,4.00
2024-05-09T03:58:44.684Z,3.53
2024-05-09T04:02:10.271Z,4.50
2024-05-09T04:05:35.830Z,4.57
2024-05-09T04:09:01.624Z,4.50
2024-05-09T04:12:27.612Z,4.10
2024-05-09T04:15:55.443Z,4.57
2024-05-09T04:19:18.387Z,4.70
2024-05-09T04:22:43.829Z,4.73
2024-05-09T04:26:10.435Z,4.50
2024-05-09T04:29:37.255Z,5.00
2024-05-09T04:33:05.781Z,3.97
2024-05-09T04:36:31.442Z,4.17
2024-05-09T04:39:57.592Z,3.77
2024-05-09T04:43:22.895Z,4.43
2024-05-09T04:46:46.956Z,4.70
2024-05-09T04:50:21.226Z,4.33
2024-05-09T04:53:54.609Z,4.70
2024-05-09T04:57:19.903Z,4.70
2024-05-09T05:00:45.333Z,5.43
2024-05-09T05:04:10.703Z,5.20
2024-05-09T05:07:38.702Z,5.70
2024-05-09T05:11:03.968Z,5.70
2024-05-09T05:14:26.636Z,5.00
2024-05-09T05:17:52.104Z,4.80
2024-05-09T05:21:17.833Z,5.40
2024-05-09T05:24:45.817Z,4.80
2024-05-09T05:28:11.623Z,4.17
2024-05-09T05:31:34.489Z,5.23
2024-05-09T05:34:59.733Z,4.80
2024-05-09T05:38:26.064Z,5.20
2024-05-09T05:41:55.756Z,5.13
2024-05-09T05:45:18.607Z,5.50
2024-05-09T05:48:44.100Z,4.30
2024-05-09T05:52:07.464Z,5.30
2024-05-09T05:55:32.665Z,4.73
2024-05-09T05:59:00.566Z,4.83
2024-05-09T06:02:23.393Z,4.50
2024-05-09T06:05:48.898Z,4.93
2024-05-09T06:09:14.266Z,4.93
2024-05-09T06:12:39.223Z,5.50
2024-05-09T06:16:08.000Z,4.60
2024-05-09T06:19:31.090Z,4.77
2024-05-09T06:22:56.384Z,4.77
2024-05-09T06:26:21.675Z,5.53
2024-05-09T06:29:46.939Z,4.70
2024-05-09T06:33:16.445Z,4.97
2024-05-09T06:36:39.873Z,4.57
2024-05-09T06:40:07.308Z,4.10
2024-05-09T06:43:30.231Z,4.60
2024-05-09T06:46:58.078Z,4.50
2024-05-09T06:50:35.445Z,3.83
2024-05-09T06:54:02.870Z,4.90
2024-05-09T06:57:29.812Z,4.97
2024-05-09T07:00:52.555Z,4.63
2024-05-09T07:04:18.046Z,3.77
2024-05-09T07:07:43.677Z,3.60
2024-05-09T07:11:08.979Z,3.63
2024-05-09T07:14:36.011Z,3.57
2024-05-09T07:18:03.041Z,3.90
2024-05-09T07:21:28.535Z,3.40
2024-05-09T07:24:53.758Z,4.40
2024-05-09T07:28:20.828Z,3.50
2024-05-09T07:31:46.057Z,3.00
2024-05-09T07:35:11.555Z,2.73
2024-05-09T07:38:37.022Z,3.40
2024-05-09T07:42:02.733Z,2.90
2024-05-09T07:45:45.002Z,2.97
2024-05-09T07:50:55.167Z,2.60
2024-05-09T07:53:36.094Z,2.87
2024-05-09T07:56:46.092Z,2.47
2024-05-09T08:00:17.256Z,5.80
2024-05-09T08:03:45.630Z,2.40
2024-05-09T08:07:11.255Z,2.60
2024-05-09T08:10:35.244Z,4.47
2024-05-09T08:14:00.568Z,2.20
2024-05-09T08:17:25.905Z,2.50
2024-05-09T08:20:51.829Z,3.00
2024-05-09T08:24:16.991Z,2.60
2024-05-09T08:27:41.139Z,2.37
2024-05-09T08:31:07.316Z,2.13
2024-05-09T08:34:32.855Z,2.33
2024-05-09T08:37:58.220Z,2.20
2024-05-09T08:41:23.592Z,3.53
2024-05-09T08:44:51.914Z,2.37
2024-05-09T08:48:18.948Z,2.07
2024-05-09T08:51:47.603Z,2.33
2024-05-09T08:55:13.631Z,2.20
2024-05-09T08:58:40.439Z,1.93
2024-05-09T09:02:06.025Z,2.00
2024-05-09T09:05:35.960Z,2.37
2024-05-09T09:09:03.373Z,2.40
2024-05-09T09:12:28.674Z,2.00
2024-05-09T09:15:57.775Z,1.80
2024-05-09T09:19:26.145Z,2.00
2024-05-09T09:22:51.431Z,4.13
2024-05-09T09:26:18.958Z,1.83
2024-05-09T09:29:45.144Z,3.13
2024-05-09T09:33:10.220Z,2.00
2024-05-09T09:36:38.859Z,2.13
2024-05-09T09:40:07.083Z,2.87
2024-05-09T09:43:33.292Z,2.00
2024-05-09T09:47:01.335Z,2.20
2024-05-09T09:50:33.275Z,3.03
2024-05-09T09:54:01.659Z,4.40
2024-05-09T09:57:26.275Z,1.90
2024-05-09T10:00:54.258Z,1.70
2024-05-09T10:04:21.202Z,1.83
2024-05-09T10:07:49.272Z,5.53
2024-05-09T10:11:14.715Z,2.03
2024-05-09T10:14:48.071Z,2.00
2024-05-09T10:18:16.343Z,1.80
2024-05-09T10:21:49.746Z,1.70
2024-05-09T10:25:14.801Z,2.00
2024-05-09T10:28:46.544Z,1.90
2024-05-09T10:32:12.036Z,1.87
2024-05-09T10:35:37.274Z,2.00
2024-05-09T10:39:03.069Z,1.77
2024-05-09T10:42:29.383Z,4.63
2024-05-09T10:45:52.662Z,2.33
2024-05-09T10:49:18.203Z,2.17
2024-05-09T10:52:46.087Z,1.93
2024-05-09T10:56:09.709Z,1.90
2024-05-09T10:59:42.461Z,3.90
2024-05-09T11:03:08.650Z,1.90
2024-05-09T11:06:36.055Z,2.33
2024-05-09T11:10:02.081Z,3.00
2024-05-09T11:13:31.856Z,1.60
2024-05-09T11:17:03.935Z,1.80
2024-05-09T11:20:37.498Z,1.70
2024-05-09T11:24:03.296Z,2.63
2024-05-09T11:27:28.597Z,1.50
2024-05-09T11:30:54.427Z,1.60
2024-05-09T11:34:17.148Z,2.70
2024-05-09T11:37:42.757Z,1.70
2024-05-09T11:41:06.153Z,1.90
2024-05-09T11:44:34.021Z,2.10
2024-05-09T11:47:59.484Z,1.80
2024-05-09T11:51:24.696Z,1.90
2024-05-09T11:54:49.940Z,1.80
2024-05-09T11:58:14.764Z,2.47
2024-05-09T12:01:42.941Z,3.87
2024-05-09T12:05:06.031Z,2.00
2024-05-09T12:08:32.156Z,1.70
2024-05-09T12:11:54.945Z,2.10
2024-05-09T12:15:20.091Z,1.80
2024-05-09T12:18:48.014Z,2.13
2024-05-09T12:22:13.392Z,1.60
2024-05-09T12:25:39.665Z,1.60
2024-05-09T12:29:02.647Z,1.70
2024-05-09T12:32:28.347Z,2.20
2024-05-09T12:35:53.943Z,1.90
2024-05-09T12:39:19.211Z,1.70
2024-05-09T12:42:41.972Z,1.63
2024-05-09T12:46:07.767Z,1.70
2024-05-09T12:49:33.213Z,1.70
2024-05-09T12:53:02.092Z,3.00
2024-05-09T12:56:28.212Z,3.10
2024-05-09T12:59:50.960Z,2.70
2024-05-09T13:03:16.394Z,1.90
2024-05-09T13:06:39.274Z,1.60
2024-05-09T13:10:13.907Z,1.70
2024-05-09T13:13:41.590Z,1.63
2024-05-09T13:17:07.841Z,1.77
2024-05-09T13:20:35.335Z,2.73
2024-05-09T13:24:01.329Z,1.93
2024-05-09T13:27:26.898Z,1.60
2024-05-09T13:30:52.128Z,1.80
2024-05-09T13:34:17.493Z,1.60
2024-05-09T13:37:43.136Z,1.57
2024-05-09T13:41:08.513Z,1.70
2024-05-09T13:44:36.384Z,2.83
2024-05-09T13:47:59.421Z,1.50
2024-05-09T13:51:24.836Z,1.80
2024-05-09T13:54:47.902Z,1.90
2024-05-09T13:58:13.323Z,5.83
2024-05-09T14:01:41.434Z,1.80
2024-05-09T14:05:07.452Z,1.67
2024-05-09T14:08:33.004Z,2.00
2024-05-09T14:11:58.318Z,2.73
2024-05-09T14:15:21.200Z,1.80
2024-05-09T14:18:49.202Z,2.67
2024-05-09T14:22:12.070Z,2.73
2024-05-09T14:25:41.996Z,1.70
2024-05-09T14:29:08.875Z,1.70
2024-05-09T14:32:31.711Z,3.50
2024-05-09T14:36:02.071Z,2.20
2024-05-09T14:39:27.395Z,1.70
2024-05-09T14:42:52.694Z,2.43
2024-05-09T14:46:15.665Z,2.67
2024-05-09T14:49:41.124Z,1.60
2024-05-09T14:53:07.537Z,2.30
2024-05-09T14:56:33.408Z,2.77
2024-05-09T14:59:56.132Z,2.20
2024-05-09T15:03:22.368Z,2.00
2024-05-09T15:06:48.629Z,1.80
2024-05-09T15:10:26.529Z,1.90
2024-05-09T15:14:00.061Z,4.60
2024-05-09T15:17:23.143Z,1.70
2024-05-09T15:20:48.918Z,1.87
2024-05-09T15:24:14.432Z,2.17
2024-05-09T15:27:42.559Z,1.77
2024-05-09T15:31:08.031Z,2.50
2024-05-09T15:34:33.489Z,3.47
2024-05-09T15:37:56.751Z,3.50
2024-05-09T15:41:22.041Z,1.80
2024-05-09T15:44:52.951Z,1.70
2024-05-09T15:48:15.821Z,1.97
2024-05-09T15:51:41.243Z,1.60
2024-05-09T15:55:04.502Z,2.63
2024-05-09T15:58:30.944Z,1.60
2024-05-09T16:01:59.110Z,2.43
2024-05-09T16:05:24.620Z,2.47
2024-05-09T16:08:49.936Z,2.10
2024-05-09T16:12:12.712Z,2.67
2024-05-09T16:15:38.144Z,1.50
2024-05-09T16:19:03.652Z,2.23
2024-05-09T16:22:29.012Z,2.33
2024-05-09T16:25:52.037Z,1.63
2024-05-09T16:29:17.682Z,4.20
2024-05-09T16:32:44.050Z,2.27
2024-05-09T16:36:12.544Z,3.13
2024-05-09T16:39:37.954Z,3.73
2024-05-09T16:43:03.656Z,2.60
2024-05-09T16:46:29.194Z,1.70
2024-05-09T16:49:51.909Z,1.70
2024-05-09T16:53:20.408Z,1.60
2024-05-09T16:56:45.814Z,1.83
2024-05-09T17:00:18.317Z,2.50
2024-05-09T17:03:50.288Z,2.23
2024-05-09T17:07:16.075Z,2.23
2024-05-09T17:10:44.107Z,2.90
2024-05-09T17:14:09.544Z,2.33
2024-05-09T17:17:34.988Z,1.90
2024-05-09T17:21:00.323Z,2.63
2024-05-09T17:24:25.567Z,1.67
2024-05-09T17:27:51.075Z,2.13
2024-05-09T17:31:17.593Z,1.60
2024-05-09T17:34:43.031Z,1.90
2024-05-09T17:38:06.672Z,1.80
2024-05-09T17:41:32.118Z,2.37
2024-05-09T17:45:00.254Z,1.90
2024-05-09T17:48:25.857Z,1.70
2024-05-09T17:51:52.148Z,1.57
2024-05-09T17:55:17.921Z,1.90
2024-05-09T17:58:40.769Z,1.70
2024-05-09T18:02:09.103Z,2.43
2024-05-09T18:05:32.171Z,1.87
2024-05-09T18:08:57.583Z,1.83
2024-05-09T18:12:22.844Z,1.80
2024-05-09T18:15:48.225Z,1.60
2024-05-09T18:19:16.254Z,1.43
2024-05-09T18:22:41.702Z,2.63
2024-05-09T18:26:08.645Z,2.63
2024-05-09T18:29:31.427Z,1.90
2024-05-09T18:32:56.803Z,2.23
2024-05-09T18:36:22.701Z,1.73
2024-05-09T18:39:47.890Z,1.50
2024-05-09T18:43:13.310Z,1.53
2024-05-09T18:46:39.044Z,1.83
2024-05-09T18:50:08.879Z,4.23
2024-05-09T18:53:40.463Z,1.50
2024-05-09T18:57:04.816Z,1.90
2024-05-09T19:00:35.755Z,1.60
2024-05-09T19:04:04.180Z,1.80
2024-05-09T19:07:27.006Z,1.93
2024-05-09T19:10:55.012Z,1.50
2024-05-09T19:14:21.252Z,1.50
2024-05-09T19:17:46.528Z,1.50
2024-05-09T19:21:14.229Z,2.17
2024-05-09T19:24:39.461Z,1.63
2024-05-09T19:28:06.152Z,2.83
2024-05-09T19:31:31.461Z,2.03
2024-05-09T19:34:54.965Z,1.63
2024-05-09T19:38:20.425Z,2.43
2024-05-09T19:41:45.626Z,1.90
2024-05-09T19:45:11.229Z,1.60
2024-05-09T19:48:36.610Z,1.50
2024-05-09T19:51:59.342Z,2.27
2024-05-09T19:55:24.642Z,1.63
2024-05-09T19:58:49.924Z,1.60
2024-05-09T20:02:18.038Z,1.67
2024-05-09T20:05:46.291Z,1.70
2024-05-09T20:09:12.110Z,2.07
2024-05-09T20:12:35.128Z,1.67
2024-05-09T20:16:01.255Z,2.00
2024-05-09T20:19:26.658Z,2.23
2024-05-09T20:22:51.926Z,1.93
2024-05-09T20:26:14.567Z,1.70
2024-05-09T20:29:39.741Z,1.70
2024-05-09T20:33:05.273Z,2.90
2024-05-09T20:36:34.809Z,1.70
2024-05-09T20:39:57.732Z,3.50
2024-05-09T20:43:23.054Z,2.37
2024-05-09T20:46:45.980Z,2.53
2024-05-09T20:50:20.559Z,2.00
2024-05-09T20:53:56.742Z,1.80
2024-05-09T20:57:19.458Z,1.93
2024-05-09T21:00:46.440Z,1.80
2024-05-09T21:04:09.856Z,1.57
2024-05-09T21:07:35.431Z,1.70
2024-05-09T21:11:03.311Z,1.60
2024-05-09T21:14:26.022Z,5.47
2024-05-09T21:17:51.222Z,1.50
2024-05-09T21:21:13.967Z,3.63
2024-05-09T21:24:39.608Z,1.80
2024-05-09T21:28:08.324Z,1.80
2024-05-09T21:31:34.149Z,2.00
2024-05-09T21:34:57.209Z,1.90
2024-05-09T21:38:22.884Z,2.70
2024-05-09T21:41:48.426Z,1.70
2024-05-09T21:45:16.769Z,1.80
2024-05-09T21:48:42.397Z,1.90
2024-05-09T21:52:05.971Z,1.87
2024-05-09T21:55:31.725Z,2.10
2024-05-09T21:58:54.723Z,2.90
2024-05-09T22:02:23.457Z,1.83
2024-05-09T22:05:46.480Z,3.17
2024-05-09T22:09:11.968Z,2.37
2024-05-09T22:12:35.254Z,2.20
2024-05-09T22:16:00.824Z,2.07
2024-05-09T22:19:29.743Z,2.03
2024-05-09T22:22:54.334Z,2.00
2024-05-09T22:26:19.882Z,2.37
2024-05-09T22:29:42.760Z,1.97
2024-05-09T22:33:11.354Z,2.90
2024-05-09T22:36:37.500Z,1.57
2024-05-09T22:40:06.276Z,2.00
2024-05-09T22:43:29.522Z,1.90
2024-05-09T22:46:54.786Z,1.93
2024-05-09T22:50:26.248Z,2.10
2024-05-09T22:53:55.024Z,1.73
2024-05-09T22:57:20.296Z,1.77
2024-05-09T23:00:45.767Z,1.90
2024-05-09T23:04:09.498Z,1.70
2024-05-09T23:07:34.720Z,1.80
2024-05-09T23:11:02.641Z,2.10
2024-05-09T23:14:27.877Z,2.60
2024-05-09T23:17:50.776Z,2.70
2024-05-09T23:21:16.004Z,2.30
2024-05-09T23:24:39.616Z,2.33
2024-05-09T23:28:08.263Z,2.10
2024-05-09T23:31:31.057Z,3.20
2024-05-09T23:34:56.388Z,1.90
2024-05-09T23:38:23.748Z,2.27
2024-05-09T23:41:46.673Z,2.30
2024-05-09T23:45:14.585Z,3.33
2024-05-09T23:48:40.031Z,2.30
2024-05-09T23:52:05.405Z,1.97
2024-05-09T23:55:31.803Z,2.30
2024-05-09T23:58:54.798Z,2.33
